Aeroporto :
LOGIN :

Iscrizione | Disclaimer

   EN    FR    IT 

 










Sommario :    VFR   VFR Marginale   IFR   IFR Intensivo   IFR Molto Intensivo
Visibilità : 
Base nubi : 
>= 8 km
>= 3000ft
5 / 8 km
1000 / 3000 ft
1500m / 5 km
500 / 1000 ft
800 / 1500m
200 / 500 ft
< 800m
< 200 ft
Simboli :   Temporali  Nebbia  Neve Forte  Precipitazioni Forti  Vento > 20 kt
SIGMETs :   Varie  Temporali  Ghiacco  Turbolenza  Onda orograficha  Ceneri Vulcaniche







- Altitudine del aeroporto : 2220 ft


LOXZ - Zeltweg AB

ULTIMO METAR :
  • 181750Z 10005KT 20KM FEW040SC BKN170AC 00/M06 Q1024 NOSIG

METARs OBSOLETI :
  • 181650Z 05007KT 20KM FEW040SC SCT140AC 01/M06 Q1023 NOSIG
  • 181620Z 06007KT 20KM FEW040SC BKN140AC 01/M06 Q1023 NOSIG
  • 181550Z 06008KT 20KM FEW040SC BKN140AC 02/M06 Q1023 NOSIG
  • 181520Z 06008KT 20KM FEW040SC BKN140AC 02/M06 Q1023 NOSIG

TAF TAF LOXZ
Valido dal 18 a 12 ore il 18 a 21 ore UTC


181115Z 1812/1821 09007KT 9999 FEW030 SCT045 BKN130
BECMG 1817/1819 VRB03KT SCT050
Nessun NOTAM noto per questo aeroporto.



MetMap, La meteo Aeronautica in un colpo d'occhio ! - Copyright ORBIFLY Dicembre 2007 - Disclaimer

ORBIFLY MET'MAP TEAM :

Programmazione e sviluppo : Alexandra Zaïnal
Concezione e sviluppo : Baudouin d'Aumeries
Co-Programmazione e sviluppo : Marc-Olivier Méhu
Supporto tecnico e logistico : Manuel Goepfert
Aiuto per la traduzione : Arnaldo La Scala

Contatto : metmap@orbifly.com




FONTI E CREDITI :

   NOAA